createdAt,value
2018-03-27T00:00:09.173Z,0.00
2018-03-27T00:01:09.067Z,0.00
2018-03-27T00:02:09.043Z,0.00
2018-03-27T00:03:08.908Z,0.00
2018-03-27T00:04:08.832Z,0.00
2018-03-27T00:05:08.755Z,0.00
2018-03-27T00:06:08.677Z,0.00
2018-03-27T00:07:08.594Z,0.00
2018-03-27T00:08:08.514Z,0.00
2018-03-27T00:09:08.437Z,0.00
2018-03-27T00:10:08.359Z,0.00
2018-03-27T00:11:08.279Z,0.00
2018-03-27T00:12:08.199Z,0.00
2018-03-27T00:13:08.119Z,0.00
2018-03-27T00:14:08.040Z,0.00
2018-03-27T00:15:07.960Z,0.00
2018-03-27T00:16:07.881Z,0.00
2018-03-27T00:17:07.805Z,0.00
2018-03-27T00:18:07.725Z,0.00
2018-03-27T00:19:07.644Z,0.00
2018-03-27T00:20:07.565Z,0.00
2018-03-27T00:21:07.487Z,0.00
2018-03-27T00:22:07.409Z,0.00
2018-03-27T00:23:07.334Z,0.00
2018-03-27T00:24:07.252Z,0.00
2018-03-27T00:25:07.171Z,0.00
2018-03-27T00:26:07.090Z,0.00
2018-03-27T00:27:07.013Z,0.00
2018-03-27T00:28:06.932Z,0.00
2018-03-27T00:29:06.898Z,0.00
2018-03-27T00:30:06.775Z,0.00
2018-03-27T00:31:06.700Z,0.00
2018-03-27T00:32:06.619Z,0.00
2018-03-27T00:33:06.543Z,0.00
2018-03-27T00:34:06.458Z,0.00
2018-03-27T00:35:06.411Z,0.00
2018-03-27T00:36:06.308Z,0.00
2018-03-27T00:37:06.226Z,0.00
2018-03-27T00:38:06.140Z,0.00
2018-03-27T00:39:06.063Z,0.00
2018-03-27T00:40:05.986Z,0.00
2018-03-27T00:41:05.904Z,0.00
2018-03-27T00:42:05.821Z,0.00
2018-03-27T00:43:05.745Z,0.00
2018-03-27T00:44:05.667Z,0.00
2018-03-27T00:45:05.595Z,0.00
2018-03-27T00:46:05.507Z,0.00
2018-03-27T00:47:05.424Z,0.00
2018-03-27T00:48:05.349Z,0.00
2018-03-27T00:49:05.270Z,0.00
2018-03-27T00:50:05.189Z,0.00
2018-03-27T00:51:05.111Z,0.00
2018-03-27T00:52:05.029Z,0.00
2018-03-27T00:53:04.950Z,0.00
2018-03-27T00:54:04.879Z,0.00
2018-03-27T00:55:04.795Z,0.00
2018-03-27T00:56:04.713Z,0.00
2018-03-27T00:57:04.633Z,0.00
2018-03-27T00:58:04.553Z,0.00
2018-03-27T00:59:04.473Z,0.00
2018-03-27T01:00:04.393Z,0.00
2018-03-27T01:01:04.321Z,0.00
2018-03-27T01:02:04.238Z,0.00
2018-03-27T01:03:04.156Z,0.00
2018-03-27T01:04:04.081Z,0.00
2018-03-27T01:05:04.000Z,0.00
2018-03-27T01:06:03.919Z,0.00
2018-03-27T01:07:03.842Z,0.00
2018-03-27T01:08:03.758Z,0.00
2018-03-27T01:09:03.680Z,0.00
2018-03-27T01:10:03.599Z,0.00
2018-03-27T01:11:03.518Z,0.00
2018-03-27T01:12:03.437Z,0.00
2018-03-27T01:13:03.365Z,0.00
2018-03-27T01:14:03.279Z,0.00
2018-03-27T01:15:03.200Z,0.00
2018-03-27T01:16:03.120Z,0.00
2018-03-27T01:17:03.041Z,0.00
2018-03-27T01:18:02.959Z,0.00
2018-03-27T01:19:02.883Z,0.00
2018-03-27T01:20:02.813Z,0.00
2018-03-27T01:21:02.726Z,0.00
2018-03-27T01:22:02.641Z,0.00
2018-03-27T01:23:02.565Z,0.00
2018-03-27T01:24:02.482Z,0.00
2018-03-27T01:25:02.404Z,0.00
2018-03-27T01:26:02.318Z,0.00
2018-03-27T01:27:02.246Z,0.00
2018-03-27T01:28:02.172Z,0.00
2018-03-27T01:29:02.082Z,0.00
2018-03-27T01:30:02.024Z,0.00
2018-03-27T01:31:01.926Z,0.00
2018-03-27T01:32:01.845Z,0.00
2018-03-27T01:33:01.790Z,0.00
2018-03-27T01:34:01.686Z,0.00
2018-03-27T01:35:01.603Z,0.00
2018-03-27T01:36:01.526Z,0.00
2018-03-27T01:37:01.450Z,0.00
2018-03-27T01:38:01.366Z,0.00
2018-03-27T01:39:01.287Z,0.00
2018-03-27T01:40:01.207Z,0.00
2018-03-27T01:41:01.125Z,0.00
2018-03-27T01:42:01.046Z,0.00
2018-03-27T01:43:00.973Z,0.00
2018-03-27T01:44:00.887Z,0.00
2018-03-27T01:45:00.807Z,0.00
2018-03-27T01:46:00.729Z,0.00
2018-03-27T01:47:00.645Z,0.00
2018-03-27T01:48:00.565Z,0.00
2018-03-27T01:49:00.482Z,0.00
2018-03-27T01:50:00.418Z,0.00
2018-03-27T01:51:00.324Z,0.00
2018-03-27T01:52:00.246Z,0.00
2018-03-27T01:53:00.172Z,0.00
2018-03-27T01:54:00.086Z,0.00
2018-03-27T01:55:00.011Z,0.00
2018-03-27T01:55:59.925Z,0.00
2018-03-27T01:56:59.845Z,0.00
2018-03-27T01:57:59.766Z,0.00
2018-03-27T01:58:59.687Z,0.00
2018-03-27T01:59:59.604Z,0.00
2018-03-27T02:00:59.525Z,0.00
2018-03-27T02:01:59.444Z,0.00
2018-03-27T02:02:59.365Z,0.00
2018-03-27T02:03:59.281Z,0.00
2018-03-27T02:04:59.204Z,0.00
2018-03-27T02:05:59.129Z,0.00
2018-03-27T02:06:59.042Z,0.00
2018-03-27T02:07:58.964Z,0.00
2018-03-27T02:08:58.889Z,0.00
2018-03-27T02:09:58.801Z,0.00
2018-03-27T02:10:58.724Z,0.00
2018-03-27T02:11:58.642Z,0.00
2018-03-27T02:12:58.562Z,0.00
2018-03-27T02:13:58.482Z,0.00
2018-03-27T02:14:58.407Z,0.00
2018-03-27T02:15:58.370Z,0.00
2018-03-27T02:16:58.243Z,0.00
2018-03-27T02:17:58.161Z,0.00
2018-03-27T02:18:58.082Z,0.00
2018-03-27T02:19:58.000Z,0.00
2018-03-27T02:20:57.920Z,0.00
2018-03-27T02:21:57.841Z,0.00
2018-03-27T02:22:57.761Z,0.00
2018-03-27T02:23:57.678Z,0.00
2018-03-27T02:24:57.603Z,0.00
2018-03-27T02:25:57.535Z,0.00
2018-03-27T02:26:57.437Z,0.00
2018-03-27T02:27:57.358Z,0.00
2018-03-27T02:28:57.280Z,0.00
2018-03-27T02:29:57.199Z,0.00
2018-03-27T02:30:57.119Z,0.00
2018-03-27T02:31:57.036Z,0.00
2018-03-27T02:32:56.955Z,0.00
2018-03-27T02:33:56.876Z,0.00
2018-03-27T02:34:56.854Z,0.00
2018-03-27T02:35:56.720Z,0.00
2018-03-27T02:36:56.635Z,0.00
2018-03-27T02:37:56.551Z,0.00
2018-03-27T02:38:56.472Z,0.00
2018-03-27T02:39:56.395Z,0.00
2018-03-27T02:40:56.321Z,0.00
2018-03-27T02:41:56.232Z,0.00
2018-03-27T02:42:56.149Z,0.00
2018-03-27T02:43:56.069Z,0.00
2018-03-27T02:44:56.001Z,0.00
2018-03-27T02:45:55.909Z,0.00
2018-03-27T02:46:55.825Z,0.00
2018-03-27T02:47:55.745Z,0.00
2018-03-27T02:48:55.668Z,0.00
2018-03-27T02:49:55.580Z,0.00
2018-03-27T02:50:55.504Z,0.00
2018-03-27T02:51:55.425Z,0.00
2018-03-27T02:52:55.340Z,0.00
2018-03-27T02:53:55.262Z,0.00
2018-03-27T02:54:55.182Z,0.00
2018-03-27T02:55:55.101Z,0.00
2018-03-27T02:56:55.018Z,0.00
2018-03-27T02:57:54.939Z,0.00
2018-03-27T02:58:54.853Z,0.00
2018-03-27T02:59:54.775Z,0.00
2018-03-27T03:00:54.694Z,0.00
2018-03-27T03:01:54.615Z,0.00
2018-03-27T03:02:54.540Z,0.00
2018-03-27T03:03:54.452Z,0.00
2018-03-27T03:04:54.393Z,0.00
2018-03-27T03:05:54.291Z,0.00
2018-03-27T03:06:54.210Z,0.00
2018-03-27T03:07:54.129Z,0.00
2018-03-27T03:08:54.049Z,0.00
2018-03-27T03:09:53.965Z,0.00
2018-03-27T03:10:53.885Z,0.00
2018-03-27T03:11:53.804Z,0.00
2018-03-27T03:12:53.725Z,0.00
2018-03-27T03:13:53.642Z,0.00
2018-03-27T03:14:53.561Z,0.00
2018-03-27T03:15:53.482Z,0.00
2018-03-27T03:16:53.399Z,0.00
2018-03-27T03:17:53.318Z,0.00
2018-03-27T03:18:53.236Z,0.00
2018-03-27T03:19:53.156Z,0.00
2018-03-27T03:20:53.076Z,0.00
2018-03-27T03:21:52.994Z,0.00
2018-03-27T03:22:52.916Z,0.00
2018-03-27T03:23:52.828Z,0.00
2018-03-27T03:24:52.758Z,0.00
2018-03-27T03:25:52.668Z,0.00
2018-03-27T03:26:52.587Z,0.00
2018-03-27T03:27:52.508Z,0.00
2018-03-27T03:28:52.425Z,0.00
2018-03-27T03:29:52.344Z,0.00
2018-03-27T03:30:52.265Z,0.00
2018-03-27T03:31:52.184Z,0.00
2018-03-27T03:32:52.103Z,0.00
2018-03-27T03:33:52.024Z,0.00
2018-03-27T03:34:51.938Z,0.00
2018-03-27T03:35:51.858Z,0.00
2018-03-27T03:36:51.777Z,0.00
2018-03-27T03:37:51.696Z,0.00
2018-03-27T03:38:51.615Z,0.00
2018-03-27T03:39:51.533Z,0.00
2018-03-27T03:40:51.452Z,0.00
2018-03-27T03:41:51.370Z,0.00
2018-03-27T03:42:51.292Z,0.00
2018-03-27T03:43:51.209Z,0.00
2018-03-27T03:44:51.126Z,0.00
2018-03-27T03:45:51.045Z,0.00
2018-03-27T03:46:50.964Z,0.00
2018-03-27T03:47:50.884Z,0.00
2018-03-27T03:48:50.802Z,0.00
2018-03-27T03:49:50.718Z,0.00
2018-03-27T03:50:50.641Z,0.00
2018-03-27T03:51:50.558Z,0.00
2018-03-27T03:52:50.486Z,0.00
2018-03-27T03:53:50.393Z,0.00
2018-03-27T03:54:50.313Z,0.00
2018-03-27T03:55:50.233Z,0.00
2018-03-27T03:56:50.149Z,0.00
2018-03-27T03:57:50.076Z,0.00
2018-03-27T03:58:49.986Z,0.00
2018-03-27T03:59:49.908Z,0.00
2018-03-27T04:00:49.825Z,0.00
2018-03-27T04:01:49.744Z,0.00
2018-03-27T04:02:49.662Z,0.00
2018-03-27T04:03:49.582Z,0.00
2018-03-27T04:04:49.499Z,0.00
2018-03-27T04:05:49.417Z,0.00
2018-03-27T04:06:49.362Z,0.00
2018-03-27T04:07:49.268Z,0.00
2018-03-27T04:08:49.238Z,0.00
2018-03-27T04:09:49.092Z,0.00
2018-03-27T04:10:49.010Z,0.00
2018-03-27T04:11:48.929Z,0.00
2018-03-27T04:12:48.848Z,0.00
2018-03-27T04:13:48.766Z,0.00
2018-03-27T04:14:48.682Z,0.00
2018-03-27T04:15:48.602Z,0.00
2018-03-27T04:16:48.521Z,0.00
2018-03-27T04:17:48.441Z,0.00
2018-03-27T04:18:48.360Z,0.00
2018-03-27T04:19:48.304Z,0.00
2018-03-27T04:20:48.195Z,0.00
2018-03-27T04:21:48.113Z,0.00
2018-03-27T04:22:48.038Z,0.00
2018-03-27T04:23:47.952Z,0.00
2018-03-27T04:24:47.868Z,0.00
2018-03-27T04:25:47.786Z,0.00
2018-03-27T04:26:47.709Z,0.00
2018-03-27T04:27:47.619Z,0.00
2018-03-27T04:28:47.542Z,0.00
2018-03-27T04:29:47.463Z,0.00
2018-03-27T04:30:47.379Z,0.00
2018-03-27T04:31:47.309Z,0.00
2018-03-27T04:32:47.212Z,0.00
2018-03-27T04:33:47.141Z,0.00
2018-03-27T04:34:47.057Z,0.00
2018-03-27T04:35:46.969Z,0.00
2018-03-27T04:36:46.887Z,0.00
2018-03-27T04:37:46.806Z,0.00
2018-03-27T04:38:46.724Z,0.00
2018-03-27T04:39:46.665Z,0.00
2018-03-27T04:40:46.563Z,0.00
2018-03-27T04:41:46.478Z,0.00
2018-03-27T04:42:46.397Z,0.00
2018-03-27T04:43:46.314Z,0.00
2018-03-27T04:44:46.232Z,0.00
2018-03-27T04:45:46.151Z,0.00
2018-03-27T04:46:46.067Z,0.00
2018-03-27T04:47:45.990Z,0.00
2018-03-27T04:48:45.908Z,0.00
2018-03-27T04:49:45.820Z,0.00
2018-03-27T04:50:45.741Z,0.00
2018-03-27T04:51:45.663Z,0.00
2018-03-27T04:52:45.578Z,4.00
2018-03-27T04:53:45.507Z,4.00
2018-03-27T04:54:45.418Z,0.00
2018-03-27T04:55:45.332Z,4.00
2018-03-27T04:56:45.248Z,8.00
2018-03-27T04:57:45.163Z,4.00
2018-03-27T04:58:45.085Z,4.00
2018-03-27T04:59:45.002Z,8.00
2018-03-27T05:00:44.920Z,12.00
2018-03-27T05:01:44.838Z,12.00
2018-03-27T05:02:44.755Z,16.00
2018-03-27T05:03:44.675Z,12.00
2018-03-27T05:04:44.591Z,20.00
2018-03-27T05:05:44.510Z,20.00
2018-03-27T05:06:44.430Z,24.00
2018-03-27T05:07:44.349Z,28.00
2018-03-27T05:08:44.265Z,36.00
2018-03-27T05:09:44.182Z,36.00
2018-03-27T05:10:44.100Z,44.00
2018-03-27T05:11:44.019Z,48.00
2018-03-27T05:12:43.937Z,56.00
2018-03-27T05:13:43.850Z,64.00
2018-03-27T05:14:43.777Z,72.00
2018-03-27T05:15:43.691Z,80.00
2018-03-27T05:16:43.609Z,88.00
2018-03-27T05:17:43.524Z,100.00
2018-03-27T05:18:43.447Z,112.00
2018-03-27T05:19:43.360Z,128.00
2018-03-27T05:20:43.280Z,136.00
2018-03-27T05:21:43.198Z,152.00
2018-03-27T05:22:43.116Z,164.00
2018-03-27T05:23:43.033Z,180.00
2018-03-27T05:24:42.949Z,196.00
2018-03-27T05:25:42.870Z,216.00
2018-03-27T05:26:42.789Z,232.00
2018-03-27T05:27:42.704Z,248.00
2018-03-27T05:28:42.620Z,264.00
2018-03-27T05:29:42.553Z,284.00
2018-03-27T05:30:42.456Z,308.00
2018-03-27T05:31:42.374Z,324.00
2018-03-27T05:32:42.292Z,348.00
2018-03-27T05:33:42.215Z,368.00
2018-03-27T05:34:42.126Z,392.00
2018-03-27T05:35:42.039Z,412.00
2018-03-27T05:36:41.971Z,436.00
2018-03-27T05:37:41.881Z,460.00
2018-03-27T05:38:41.816Z,484.00
2018-03-27T05:39:41.716Z,508.00
2018-03-27T05:40:41.634Z,532.00
2018-03-27T05:41:41.550Z,560.00
2018-03-27T05:42:41.467Z,584.00
2018-03-27T05:43:41.389Z,612.00
2018-03-27T05:44:41.305Z,640.00
2018-03-27T05:45:41.221Z,668.00
2018-03-27T05:46:41.163Z,700.00
2018-03-27T05:47:41.062Z,728.00
2018-03-27T05:48:40.978Z,756.00
2018-03-27T05:49:40.892Z,788.00
2018-03-27T05:50:40.810Z,812.00
2018-03-27T05:51:40.733Z,836.00
2018-03-27T05:52:40.658Z,872.00
2018-03-27T05:53:40.566Z,908.00
2018-03-27T05:54:40.490Z,948.00
2018-03-27T05:55:40.401Z,992.00
2018-03-27T05:56:40.318Z,1052.00
2018-03-27T05:57:40.234Z,1128.00
2018-03-27T05:58:40.155Z,1216.00
2018-03-27T05:59:40.070Z,1336.00
2018-03-27T06:00:39.990Z,1444.00
2018-03-27T06:01:39.906Z,1464.00
2018-03-27T06:02:39.828Z,1440.00
2018-03-27T06:03:39.744Z,1544.00
2018-03-27T06:04:39.659Z,1756.00
2018-03-27T06:05:39.581Z,1872.00
2018-03-27T06:06:39.498Z,1836.00
2018-03-27T06:07:39.414Z,1732.00
2018-03-27T06:08:39.332Z,1636.00
2018-03-27T06:09:39.249Z,1508.00
2018-03-27T06:10:39.166Z,1376.00
2018-03-27T06:11:39.090Z,1320.00
2018-03-27T06:12:39.001Z,1316.00
2018-03-27T06:13:38.923Z,1324.00
2018-03-27T06:14:38.840Z,1320.00
2018-03-27T06:15:38.757Z,1316.00
2018-03-27T06:16:38.675Z,1324.00
2018-03-27T06:17:38.592Z,1320.00
2018-03-27T06:18:38.525Z,1368.00
2018-03-27T06:19:38.427Z,1412.00
2018-03-27T06:20:38.351Z,1464.00
2018-03-27T06:21:38.268Z,1544.00
2018-03-27T06:22:38.182Z,1632.00
2018-03-27T06:23:38.102Z,1760.00
2018-03-27T06:24:38.026Z,1844.00
2018-03-27T06:25:37.943Z,1920.00
2018-03-27T06:26:37.857Z,2032.00
2018-03-27T06:27:37.784Z,2148.00
2018-03-27T06:28:37.696Z,2208.00
2018-03-27T06:29:37.613Z,2260.00
2018-03-27T06:30:37.529Z,2348.00
2018-03-27T06:31:37.447Z,2432.00
2018-03-27T06:32:37.367Z,2584.00
2018-03-27T06:33:37.284Z,2708.00
2018-03-27T06:34:37.202Z,2744.00
2018-03-27T06:35:37.126Z,2700.00
2018-03-27T06:36:37.040Z,2632.00
2018-03-27T06:37:36.958Z,2568.00
2018-03-27T06:38:36.876Z,2448.00
2018-03-27T06:39:36.795Z,2512.00
2018-03-27T06:40:36.722Z,2664.00
2018-03-27T06:41:36.628Z,2704.00
2018-03-27T06:42:36.562Z,2724.00
2018-03-27T06:43:36.467Z,2396.00
2018-03-27T06:44:36.386Z,2320.00
2018-03-27T06:45:36.303Z,2380.00
2018-03-27T06:46:36.222Z,2352.00
2018-03-27T06:47:36.189Z,2416.00
2018-03-27T06:48:36.059Z,2452.00
2018-03-27T06:49:35.977Z,2452.00
2018-03-27T06:50:35.896Z,2512.00
2018-03-27T06:51:35.815Z,2592.00
2018-03-27T06:52:35.734Z,2616.00
2018-03-27T06:53:35.654Z,2648.00
2018-03-27T06:54:35.573Z,2688.00
2018-03-27T06:55:35.494Z,2724.00
2018-03-27T06:56:35.412Z,2760.00
2018-03-27T06:57:35.328Z,2788.00
2018-03-27T06:58:35.248Z,2808.00
2018-03-27T06:59:35.159Z,2836.00
2018-03-27T07:00:35.084Z,2860.00
2018-03-27T07:01:35.005Z,2880.00
2018-03-27T07:02:34.920Z,2900.00
2018-03-27T07:03:34.837Z,2936.00
2018-03-27T07:04:34.777Z,2972.00
2018-03-27T07:05:34.727Z,3008.00
2018-03-27T07:06:34.596Z,3056.00
2018-03-27T07:07:34.511Z,3092.00
2018-03-27T07:08:34.502Z,3112.00
2018-03-27T07:09:34.367Z,3132.00
2018-03-27T07:10:34.272Z,3172.00
2018-03-27T07:11:34.189Z,3232.00
2018-03-27T07:12:34.130Z,3296.00
2018-03-27T07:13:34.038Z,3428.00
2018-03-27T07:14:33.958Z,3600.00
2018-03-27T07:15:33.885Z,3804.00
2018-03-27T07:16:33.786Z,4076.00
2018-03-27T07:17:33.717Z,4444.00
2018-03-27T07:18:33.630Z,4888.00
2018-03-27T07:19:33.569Z,5244.00
2018-03-27T07:20:33.466Z,5780.00
2018-03-27T07:21:33.381Z,6232.00
2018-03-27T07:22:33.347Z,6300.00
2018-03-27T07:23:33.218Z,6200.00
2018-03-27T07:24:33.136Z,6208.00
2018-03-27T07:25:33.059Z,5896.00
2018-03-27T07:26:32.979Z,5736.00
2018-03-27T07:27:32.904Z,5180.00
2018-03-27T07:28:32.817Z,4828.00
2018-03-27T07:29:32.737Z,4572.00
2018-03-27T07:30:32.658Z,4184.00
2018-03-27T07:31:32.579Z,3812.00
2018-03-27T07:32:32.532Z,3464.00
2018-03-27T07:33:32.419Z,3392.00
2018-03-27T07:34:32.337Z,4120.00
2018-03-27T07:35:32.265Z,5316.00
2018-03-27T07:36:32.175Z,6688.00
2018-03-27T07:37:32.099Z,7452.00
2018-03-27T07:38:32.080Z,7576.00
2018-03-27T07:39:31.937Z,7708.00
2018-03-27T07:40:31.889Z,7368.00
2018-03-27T07:41:31.778Z,8032.00
2018-03-27T07:42:31.710Z,7252.00
2018-03-27T07:43:31.622Z,7472.00
2018-03-27T07:44:31.543Z,7228.00
2018-03-27T07:45:31.461Z,7876.00
2018-03-27T07:46:31.384Z,8392.00
2018-03-27T07:47:31.301Z,8192.00
2018-03-27T07:48:31.225Z,9576.00
2018-03-27T07:49:31.179Z,8440.00
2018-03-27T07:50:31.063Z,9548.00
2018-03-27T07:51:30.983Z,11824.00
2018-03-27T07:52:30.908Z,7612.00
2018-03-27T07:53:30.824Z,7812.00
2018-03-27T07:54:30.745Z,7280.00
2018-03-27T07:55:30.666Z,6904.00
2018-03-27T07:56:30.587Z,7388.00
2018-03-27T07:57:30.512Z,7476.00
2018-03-27T07:58:30.429Z,7544.00
2018-03-27T07:59:30.350Z,6112.00
2018-03-27T08:00:30.274Z,6064.00
2018-03-27T08:01:30.193Z,5552.00
2018-03-27T08:02:30.114Z,5352.00
2018-03-27T08:03:30.092Z,5268.00
2018-03-27T08:04:29.958Z,5444.00
2018-03-27T08:05:29.878Z,6616.00
2018-03-27T08:06:29.808Z,12368.00
2018-03-27T08:07:29.720Z,9848.00
2018-03-27T08:08:29.642Z,10232.00
2018-03-27T08:09:29.565Z,8044.00
2018-03-27T08:10:29.485Z,7676.00
2018-03-27T08:11:29.406Z,6292.00
2018-03-27T08:12:29.327Z,5760.00
2018-03-27T08:13:29.250Z,5908.00
2018-03-27T08:14:29.172Z,6680.00
2018-03-27T08:15:29.092Z,7600.00
2018-03-27T08:16:29.014Z,8460.00
2018-03-27T08:17:28.937Z,9468.00
2018-03-27T08:18:28.889Z,17184.00
2018-03-27T08:19:28.778Z,17984.00
2018-03-27T08:20:28.702Z,16040.00
2018-03-27T08:21:28.622Z,20128.00
2018-03-27T08:22:28.546Z,17216.00
2018-03-27T08:23:28.465Z,16992.00
2018-03-27T08:24:28.424Z,14256.00
2018-03-27T08:25:28.306Z,10352.00
2018-03-27T08:26:28.232Z,9156.00
2018-03-27T08:27:28.198Z,8456.00
2018-03-27T08:28:28.076Z,7844.00
2018-03-27T08:29:27.999Z,7588.00
2018-03-27T08:30:27.922Z,7512.00
2018-03-27T08:31:27.844Z,7032.00
2018-03-27T08:32:27.771Z,6268.00
2018-03-27T08:33:27.689Z,6244.00
2018-03-27T08:34:27.611Z,6608.00
2018-03-27T08:35:27.540Z,6648.00
2018-03-27T08:36:27.488Z,6940.00
2018-03-27T08:37:27.384Z,7292.00
2018-03-27T08:38:27.303Z,7192.00
2018-03-27T08:39:27.225Z,7200.00
2018-03-27T08:40:27.154Z,7096.00
2018-03-27T08:41:27.068Z,6784.00
2018-03-27T08:42:26.994Z,6200.00
2018-03-27T08:43:26.921Z,6884.00
2018-03-27T08:44:26.841Z,7608.00
2018-03-27T08:45:26.765Z,7644.00
2018-03-27T08:46:26.688Z,7624.00
2018-03-27T08:47:26.607Z,7504.00
2018-03-27T08:48:26.532Z,7480.00
2018-03-27T08:49:26.466Z,7032.00
2018-03-27T08:50:26.375Z,7612.00
2018-03-27T08:51:26.299Z,7168.00
2018-03-27T08:52:26.222Z,7424.00
2018-03-27T08:53:26.148Z,8468.00
2018-03-27T08:54:26.066Z,8484.00
2018-03-27T08:55:25.989Z,7064.00
2018-03-27T08:56:25.912Z,7568.00
2018-03-27T08:57:25.834Z,8104.00
2018-03-27T08:58:25.760Z,7780.00
2018-03-27T08:59:25.683Z,6636.00
2018-03-27T09:00:25.603Z,6200.00
2018-03-27T09:01:25.525Z,5760.00
2018-03-27T09:02:25.453Z,5560.00
2018-03-27T09:03:25.387Z,5984.00
2018-03-27T09:04:25.330Z,6776.00
2018-03-27T09:05:25.271Z,6976.00
2018-03-27T09:06:25.165Z,6456.00
2018-03-27T09:07:25.064Z,6240.00
2018-03-27T09:08:24.984Z,6404.00
2018-03-27T09:09:24.908Z,7004.00
2018-03-27T09:10:24.831Z,6984.00
2018-03-27T09:11:24.754Z,6656.00
2018-03-27T09:12:24.678Z,7424.00
2018-03-27T09:13:24.599Z,9360.00
2018-03-27T09:14:24.522Z,11832.00
2018-03-27T09:15:24.448Z,15868.00
2018-03-27T09:16:24.372Z,14396.00
2018-03-27T09:17:24.294Z,15652.00
2018-03-27T09:18:24.220Z,14548.00
2018-03-27T09:19:24.154Z,12720.00
2018-03-27T09:20:24.060Z,13844.00
2018-03-27T09:21:23.987Z,14832.00
2018-03-27T09:22:23.910Z,14584.00
2018-03-27T09:23:23.885Z,13732.00
2018-03-27T09:24:23.757Z,14160.00
2018-03-27T09:25:23.675Z,13756.00
2018-03-27T09:26:23.605Z,13864.00
2018-03-27T09:27:23.529Z,13520.00
2018-03-27T09:28:23.455Z,15960.00
2018-03-27T09:29:23.380Z,18592.00
2018-03-27T09:30:23.301Z,22080.00
2018-03-27T09:31:23.232Z,17760.00
2018-03-27T09:32:23.150Z,16728.00
2018-03-27T09:33:23.075Z,18848.00
2018-03-27T09:34:23.003Z,22304.00
2018-03-27T09:35:22.924Z,21312.00
2018-03-27T09:36:22.894Z,33248.00
2018-03-27T09:37:22.774Z,23968.00
2018-03-27T09:38:22.704Z,27424.00
2018-03-27T09:39:22.627Z,37568.00
2018-03-27T09:40:22.550Z,20320.00
2018-03-27T09:41:22.475Z,18240.00
2018-03-27T09:42:22.403Z,16624.00
2018-03-27T09:43:22.332Z,15940.00
2018-03-27T09:44:22.250Z,17248.00
2018-03-27T09:45:22.179Z,17888.00
2018-03-27T09:46:22.102Z,21120.00
2018-03-27T09:47:22.029Z,17856.00
2018-03-27T09:48:21.955Z,16332.00
2018-03-27T09:49:21.884Z,12568.00
2018-03-27T09:50:21.808Z,11008.00
2018-03-27T09:51:21.734Z,10072.00
2018-03-27T09:52:21.660Z,10104.00
2018-03-27T09:53:21.588Z,10964.00
2018-03-27T09:54:21.514Z,11884.00
2018-03-27T09:55:21.444Z,11684.00
2018-03-27T09:56:21.359Z,12312.00
2018-03-27T09:57:21.288Z,14808.00
2018-03-27T09:58:21.215Z,17696.00
2018-03-27T09:59:21.142Z,16400.00
2018-03-27T10:00:21.068Z,16124.00
2018-03-27T10:01:20.990Z,18944.00
2018-03-27T10:02:20.921Z,18912.00
2018-03-27T10:03:20.842Z,22624.00
2018-03-27T10:04:20.772Z,16252.00
2018-03-27T10:05:20.720Z,13484.00
2018-03-27T10:06:20.624Z,11136.00
2018-03-27T10:07:20.549Z,10280.00
2018-03-27T10:08:20.481Z,9416.00
2018-03-27T10:09:20.399Z,9508.00
2018-03-27T10:10:20.325Z,10364.00
2018-03-27T10:11:20.253Z,11020.00
2018-03-27T10:12:20.178Z,11672.00
2018-03-27T10:13:20.100Z,11224.00
2018-03-27T10:14:20.030Z,10448.00
2018-03-27T10:15:19.953Z,9952.00
2018-03-27T10:16:19.884Z,9280.00
2018-03-27T10:17:19.811Z,9944.00
2018-03-27T10:18:19.734Z,11116.00
2018-03-27T10:19:19.657Z,10808.00
2018-03-27T10:20:19.588Z,10980.00
2018-03-27T10:21:19.504Z,11668.00
2018-03-27T10:22:19.430Z,12036.00
2018-03-27T10:23:19.391Z,12880.00
2018-03-27T10:24:19.287Z,14088.00
2018-03-27T10:25:19.212Z,19968.00
2018-03-27T10:26:19.134Z,15280.00
2018-03-27T10:27:19.074Z,13764.00
2018-03-27T10:28:18.983Z,12476.00
2018-03-27T10:29:18.914Z,13380.00
2018-03-27T10:30:18.840Z,13464.00
2018-03-27T10:31:18.762Z,14020.00
2018-03-27T10:32:18.686Z,13136.00
2018-03-27T10:33:18.615Z,12496.00
2018-03-27T10:34:18.559Z,12908.00
2018-03-27T10:35:18.464Z,13760.00
2018-03-27T10:36:18.397Z,14312.00
2018-03-27T10:37:18.313Z,14260.00
2018-03-27T10:38:18.245Z,14260.00
2018-03-27T10:39:18.183Z,14056.00
2018-03-27T10:40:18.095Z,14336.00
2018-03-27T10:41:18.019Z,14492.00
2018-03-27T10:42:17.945Z,14636.00
2018-03-27T10:43:17.878Z,14488.00
2018-03-27T10:44:17.792Z,17312.00
2018-03-27T10:45:17.718Z,19232.00
2018-03-27T10:46:17.652Z,23616.00
2018-03-27T10:47:17.565Z,24608.00
2018-03-27T10:48:17.501Z,25888.00
2018-03-27T10:49:17.423Z,24416.00
2018-03-27T10:50:17.347Z,24768.00
2018-03-27T10:51:17.285Z,25056.00
2018-03-27T10:52:17.199Z,23936.00
2018-03-27T10:53:17.124Z,22368.00
2018-03-27T10:54:17.051Z,22912.00
2018-03-27T10:55:16.982Z,22272.00
2018-03-27T10:56:16.906Z,21760.00
2018-03-27T10:57:16.831Z,22464.00
2018-03-27T10:58:16.767Z,24576.00
2018-03-27T10:59:16.685Z,28352.00
2018-03-27T11:00:16.610Z,25952.00
2018-03-27T11:01:16.535Z,22688.00
2018-03-27T11:02:16.467Z,20480.00
2018-03-27T11:03:16.393Z,19616.00
2018-03-27T11:04:16.317Z,18976.00
2018-03-27T11:05:16.247Z,19232.00
2018-03-27T11:06:16.172Z,19712.00
2018-03-27T11:07:16.110Z,20800.00
2018-03-27T11:08:16.031Z,22592.00
2018-03-27T11:09:15.954Z,20128.00
2018-03-27T11:10:15.879Z,18112.00
2018-03-27T11:11:15.817Z,20320.00
2018-03-27T11:12:15.732Z,22048.00
2018-03-27T11:13:15.666Z,29696.00
2018-03-27T11:14:15.585Z,26720.00
2018-03-27T11:15:15.518Z,31040.00
2018-03-27T11:16:15.445Z,32736.00
2018-03-27T11:17:15.376Z,33536.00
2018-03-27T11:18:15.302Z,37376.00
2018-03-27T11:19:15.233Z,40096.00
2018-03-27T11:20:15.201Z,38464.00
2018-03-27T11:21:15.081Z,30496.00
2018-03-27T11:22:15.013Z,26208.00
2018-03-27T11:23:14.999Z,41408.00
2018-03-27T11:24:14.866Z,50208.00
2018-03-27T11:25:14.795Z,28384.00
2018-03-27T11:26:14.727Z,27680.00
2018-03-27T11:27:14.659Z,40224.00
2018-03-27T11:28:14.581Z,34496.00
2018-03-27T11:29:14.532Z,28960.00
2018-03-27T11:30:14.437Z,24224.00
2018-03-27T11:31:14.379Z,21280.00
2018-03-27T11:32:14.296Z,19552.00
2018-03-27T11:33:14.224Z,16024.00
2018-03-27T11:34:14.152Z,14584.00
2018-03-27T11:35:14.084Z,12464.00
2018-03-27T11:36:14.009Z,12564.00
2018-03-27T11:37:13.951Z,13560.00
2018-03-27T11:38:13.865Z,15372.00
2018-03-27T11:39:13.793Z,15488.00
2018-03-27T11:40:13.725Z,14260.00
2018-03-27T11:41:13.647Z,19520.00
2018-03-27T11:42:13.578Z,25120.00
2018-03-27T11:43:13.501Z,21824.00
2018-03-27T11:44:13.448Z,30368.00
2018-03-27T11:45:13.364Z,32352.00
2018-03-27T11:46:13.292Z,44928.00
2018-03-27T11:47:13.224Z,56480.00
2018-03-27T11:48:13.148Z,39104.00
2018-03-27T11:49:13.106Z,43552.00
2018-03-27T11:50:13.003Z,41536.00
2018-03-27T11:51:12.933Z,20288.00
2018-03-27T11:52:12.864Z,19296.00
2018-03-27T11:53:12.790Z,19264.00
2018-03-27T11:54:12.719Z,23840.00
2018-03-27T11:55:12.640Z,19232.00
2018-03-27T11:56:12.579Z,14236.00
2018-03-27T11:57:12.506Z,13772.00
2018-03-27T11:58:12.433Z,12364.00
2018-03-27T11:59:12.362Z,10552.00
2018-03-27T12:00:12.291Z,9556.00
2018-03-27T12:01:12.212Z,10692.00
2018-03-27T12:02:12.150Z,12608.00
2018-03-27T12:03:12.077Z,12872.00
2018-03-27T12:04:12.007Z,12720.00
2018-03-27T12:05:11.933Z,12172.00
2018-03-27T12:06:11.864Z,11364.00
2018-03-27T12:07:11.794Z,10328.00
2018-03-27T12:08:11.719Z,10648.00
2018-03-27T12:09:11.648Z,10084.00
2018-03-27T12:10:11.574Z,9640.00
2018-03-27T12:11:11.501Z,10812.00
2018-03-27T12:12:11.427Z,11564.00
2018-03-27T12:13:11.358Z,13824.00
2018-03-27T12:14:11.284Z,15480.00
2018-03-27T12:15:11.214Z,18368.00
2018-03-27T12:16:11.139Z,20000.00
2018-03-27T12:17:11.066Z,15464.00
2018-03-27T12:18:10.999Z,15024.00
2018-03-27T12:19:10.920Z,14096.00
2018-03-27T12:20:10.851Z,14372.00
2018-03-27T12:21:10.779Z,14936.00
2018-03-27T12:22:10.712Z,15448.00
2018-03-27T12:23:10.630Z,14848.00
2018-03-27T12:24:10.556Z,15036.00
2018-03-27T12:25:10.487Z,15268.00
2018-03-27T12:26:10.411Z,15136.00
2018-03-27T12:27:10.340Z,15060.00
2018-03-27T12:28:10.267Z,15056.00